GXA4359 KMIA-KTEB
Flight info
| Callsign | GXA4359 |
|---|---|
| Flight time | N/A |
| Altitude | 36000 |
| Route | FOLZZ3 ALYRA GRUBR/N0457F370 Y299 SEELO GARIC ZORDO Q111 SWNGR JAIKE4 |
| Aircraft | A320/M-SDE3FGHIRWY/LB1 |
Departure
| Time | N/A |
|---|---|
| Airport | Miami International Airport (KMIA) |
Arrival
| Time | 2026-05-08 17:43 |
|---|---|
| Airport | Teterboro Airport (KTEB) |
| Time | Latitude | Longitude | Altitude | Speed | Heading |
|---|---|---|---|---|---|
| 2026-05-08 16:48 | 37.14199 | -77.38365 | 36119 ft | 438 kts | 351° |
| 2026-05-08 16:49 | 37.17216 | -77.37964 | 36122 ft | 436 kts | 350° |
| 2026-05-08 16:49 | 37.23252 | -77.37250 | 36116 ft | 435 kts | 350° |
| 2026-05-08 16:50 | 37.29293 | -77.36520 | 36153 ft | 436 kts | 351° |
| 2026-05-08 16:50 | 37.35343 | -77.35730 | 36127 ft | 437 kts | 351° |
| 2026-05-08 16:51 | 37.41354 | -77.34926 | 36110 ft | 437 kts | 351° |
| 2026-05-08 16:51 | 37.47406 | -77.34106 | 36110 ft | 437 kts | 351° |
| 2026-05-08 16:52 | 37.53455 | -77.33301 | 36110 ft | 437 kts | 351° |
| 2026-05-08 16:52 | 37.59509 | -77.32497 | 36110 ft | 437 kts | 351° |
| 2026-05-08 16:53 | 37.68630 | -77.30861 | 36118 ft | 446 kts | 355° |
| 2026-05-08 16:53 | 37.74740 | -77.29437 | 36117 ft | 446 kts | 356° |
| 2026-05-08 16:54 | 37.77795 | -77.28559 | 36113 ft | 459 kts | 3° |
| 2026-05-08 16:54 | 37.80823 | -77.27009 | 36112 ft | 479 kts | 14° |
| 2026-05-08 16:54 | 37.86732 | -77.23001 | 36108 ft | 483 kts | 15° |
| 2026-05-08 16:55 | 37.92604 | -77.18964 | 36097 ft | 484 kts | 15° |
| 2026-05-08 16:55 | 37.98558 | -77.14881 | 36083 ft | 483 kts | 14° |
| 2026-05-08 16:56 | 38.04431 | -77.10856 | 36085 ft | 483 kts | 14° |
| 2026-05-08 16:56 | 38.10348 | -77.06797 | 36085 ft | 483 kts | 14° |
| 2026-05-08 16:57 | 38.16258 | -77.02743 | 36084 ft | 483 kts | 14° |
| 2026-05-08 16:57 | 38.22087 | -76.98362 | 36075 ft | 501 kts | 25° |
| 2026-05-08 16:58 | 38.27519 | -76.92691 | 36074 ft | 505 kts | 27° |
| 2026-05-08 16:58 | 38.32949 | -76.86998 | 36068 ft | 505 kts | 27° |
| 2026-05-08 16:59 | 38.37467 | -76.82265 | 36075 ft | 506 kts | 27° |
| 2026-05-08 16:59 | 38.42898 | -76.76567 | 36071 ft | 505 kts | 27° |
| 2026-05-08 17:00 | 38.48321 | -76.70873 | 36073 ft | 505 kts | 27° |
| 2026-05-08 17:00 | 38.53745 | -76.65165 | 36072 ft | 505 kts | 27° |
| 2026-05-08 17:01 | 38.59167 | -76.59439 | 36117 ft | 505 kts | 27° |
| 2026-05-08 17:01 | 38.64576 | -76.53725 | 36071 ft | 504 kts | 27° |
| 2026-05-08 17:02 | 38.69970 | -76.48008 | 36067 ft | 504 kts | 27° |
| 2026-05-08 17:02 | 38.72735 | -76.45323 | 36065 ft | 492 kts | 20° |
| 2026-05-08 17:02 | 38.75678 | -76.43230 | 36064 ft | 475 kts | 11° |
| 2026-05-08 17:03 | 38.81743 | -76.40102 | 36055 ft | 469 kts | 8° |
| 2026-05-08 17:03 | 38.87806 | -76.37013 | 36004 ft | 470 kts | 8° |
| 2026-05-08 17:04 | 38.90846 | -76.35449 | 35753 ft | 470 kts | 8° |
| 2026-05-08 17:04 | 38.93829 | -76.33905 | 35519 ft | 470 kts | 8° |
| 2026-05-08 17:04 | 38.96869 | -76.32331 | 35274 ft | 469 kts | 8° |
| 2026-05-08 17:04 | 38.99899 | -76.30766 | 34739 ft | 470 kts | 8° |
| 2026-05-08 17:05 | 39.02959 | -76.29197 | 33660 ft | 475 kts | 9° |
| 2026-05-08 17:05 | 39.06035 | -76.27615 | 32544 ft | 477 kts | 9° |
| 2026-05-08 17:05 | 39.09121 | -76.26021 | 31480 ft | 478 kts | 10° |
| 2026-05-08 17:05 | 39.12206 | -76.24405 | 30373 ft | 482 kts | 13° |
| 2026-05-08 17:06 | 39.15215 | -76.22330 | 29051 ft | 499 kts | 23° |
| 2026-05-08 17:06 | 39.17984 | -76.19568 | 28202 ft | 506 kts | 33° |
| 2026-05-08 17:06 | 39.20545 | -76.16506 | 27476 ft | 498 kts | 34° |
| 2026-05-08 17:06 | 39.23089 | -76.13507 | 26645 ft | 493 kts | 33° |
| 2026-05-08 17:07 | 39.25616 | -76.10562 | 25880 ft | 487 kts | 33° |
| 2026-05-08 17:07 | 39.28196 | -76.07811 | 25172 ft | 473 kts | 26° |
| 2026-05-08 17:07 | 39.30857 | -76.05358 | 24477 ft | 468 kts | 26° |
| 2026-05-08 17:07 | 39.33488 | -76.02912 | 23787 ft | 464 kts | 26° |
| 2026-05-08 17:08 | 39.36086 | -76.00475 | 23037 ft | 460 kts | 27° |
| 2026-05-08 17:08 | 39.38653 | -75.98047 | 22395 ft | 453 kts | 27° |
| 2026-05-08 17:08 | 39.41180 | -75.95651 | 21797 ft | 448 kts | 27° |
| 2026-05-08 17:08 | 39.43675 | -75.93292 | 21213 ft | 442 kts | 27° |
| 2026-05-08 17:09 | 39.46143 | -75.90960 | 20647 ft | 436 kts | 27° |
| 2026-05-08 17:09 | 39.48582 | -75.88662 | 20107 ft | 431 kts | 27° |
| 2026-05-08 17:09 | 39.50992 | -75.86389 | 19580 ft | 426 kts | 27° |
| 2026-05-08 17:09 | 39.53372 | -75.84140 | 19065 ft | 422 kts | 27° |
| 2026-05-08 17:10 | 39.55736 | -75.81908 | 18549 ft | 418 kts | 27° |
| 2026-05-08 17:10 | 39.58080 | -75.79698 | 18000 ft | 415 kts | 27° |
| 2026-05-08 17:10 | 39.60401 | -75.77520 | 17485 ft | 409 kts | 26° |
| 2026-05-08 17:10 | 39.62709 | -75.75391 | 16940 ft | 405 kts | 26° |
| 2026-05-08 17:11 | 39.64970 | -75.73326 | 16416 ft | 400 kts | 26° |
| 2026-05-08 17:11 | 39.67240 | -75.71261 | 15880 ft | 397 kts | 26° |
| 2026-05-08 17:11 | 39.69493 | -75.69204 | 15341 ft | 394 kts | 27° |
| 2026-05-08 17:11 | 39.71717 | -75.67169 | 14803 ft | 391 kts | 27° |
| 2026-05-08 17:12 | 39.73929 | -75.65138 | 14247 ft | 388 kts | 28° |
| 2026-05-08 17:12 | 39.76124 | -75.63118 | 13680 ft | 385 kts | 28° |
| 2026-05-08 17:12 | 39.78301 | -75.61111 | 13123 ft | 381 kts | 28° |
| 2026-05-08 17:12 | 39.80435 | -75.59135 | 12981 ft | 372 kts | 29° |
| 2026-05-08 17:13 | 39.82544 | -75.57185 | 13010 ft | 372 kts | 28° |
| 2026-05-08 17:13 | 39.84652 | -75.55244 | 13000 ft | 371 kts | 28° |
| 2026-05-08 17:13 | 39.86765 | -75.53298 | 13001 ft | 372 kts | 28° |
| 2026-05-08 17:13 | 39.88877 | -75.51355 | 13001 ft | 372 kts | 28° |
| 2026-05-08 17:14 | 39.90993 | -75.49406 | 12998 ft | 372 kts | 28° |
| 2026-05-08 17:14 | 39.93100 | -75.47457 | 12999 ft | 372 kts | 28° |
| 2026-05-08 17:14 | 39.95210 | -75.45503 | 13000 ft | 372 kts | 28° |
| 2026-05-08 17:14 | 39.97319 | -75.43546 | 13001 ft | 372 kts | 28° |
| 2026-05-08 17:15 | 39.99427 | -75.41589 | 13016 ft | 372 kts | 28° |
| 2026-05-08 17:15 | 40.01527 | -75.39636 | 13001 ft | 371 kts | 28° |
| 2026-05-08 17:15 | 40.03629 | -75.37682 | 13000 ft | 371 kts | 28° |
| 2026-05-08 17:15 | 40.05731 | -75.35726 | 13004 ft | 371 kts | 28° |
| 2026-05-08 17:16 | 40.07829 | -75.33771 | 13000 ft | 371 kts | 28° |
| 2026-05-08 17:16 | 40.09930 | -75.31808 | 12984 ft | 368 kts | 28° |
| 2026-05-08 17:16 | 40.11954 | -75.29899 | 12984 ft | 350 kts | 28° |
| 2026-05-08 17:16 | 40.13877 | -75.28077 | 12988 ft | 333 kts | 28° |
| 2026-05-08 17:17 | 40.15689 | -75.26364 | 12937 ft | 319 kts | 27° |
| 2026-05-08 17:17 | 40.17471 | -75.24697 | 12676 ft | 312 kts | 27° |
| 2026-05-08 17:17 | 40.19238 | -75.23060 | 12304 ft | 311 kts | 27° |
| 2026-05-08 17:17 | 40.21003 | -75.21428 | 11940 ft | 309 kts | 27° |
| 2026-05-08 17:18 | 40.22758 | -75.19805 | 11542 ft | 308 kts | 28° |
| 2026-05-08 17:18 | 40.24503 | -75.18187 | 11128 ft | 308 kts | 28° |
| 2026-05-08 17:18 | 40.26241 | -75.16571 | 10739 ft | 306 kts | 28° |
| 2026-05-08 17:18 | 40.27970 | -75.14955 | 10360 ft | 305 kts | 29° |
| 2026-05-08 17:19 | 40.29691 | -75.13343 | 9975 ft | 304 kts | 30° |
| 2026-05-08 17:19 | 40.31408 | -75.11730 | 9630 ft | 301 kts | 30° |
| 2026-05-08 17:19 | 40.32993 | -75.09898 | 9157 ft | 307 kts | 43° |
| 2026-05-08 17:19 | 40.34435 | -75.07850 | 8706 ft | 306 kts | 42° |
| 2026-05-08 17:20 | 40.35874 | -75.05820 | 8312 ft | 304 kts | 42° |
| 2026-05-08 17:20 | 40.37308 | -75.03804 | 7971 ft | 300 kts | 43° |
| 2026-05-08 17:20 | 40.38730 | -75.01805 | 7553 ft | 299 kts | 43° |
| 2026-05-08 17:20 | 40.40149 | -74.99810 | 7117 ft | 299 kts | 43° |
| 2026-05-08 17:21 | 40.41549 | -74.97839 | 7006 ft | 293 kts | 43° |
| 2026-05-08 17:21 | 40.42941 | -74.95883 | 7014 ft | 293 kts | 43° |
| 2026-05-08 17:21 | 40.44330 | -74.93932 | 7016 ft | 293 kts | 43° |
| 2026-05-08 17:21 | 40.45704 | -74.92001 | 7017 ft | 293 kts | 43° |
| 2026-05-08 17:22 | 40.47117 | -74.90016 | 6823 ft | 294 kts | 43° |
| 2026-05-08 17:22 | 40.48504 | -74.88062 | 6561 ft | 289 kts | 43° |
| 2026-05-08 17:22 | 40.49863 | -74.86145 | 6477 ft | 291 kts | 43° |
| 2026-05-08 17:22 | 40.51240 | -74.84200 | 6394 ft | 291 kts | 43° |
| 2026-05-08 17:23 | 40.52619 | -74.82252 | 6316 ft | 291 kts | 43° |
| 2026-05-08 17:23 | 40.53992 | -74.80305 | 6229 ft | 291 kts | 43° |
| 2026-05-08 17:23 | 40.55365 | -74.78354 | 6163 ft | 290 kts | 43° |
| 2026-05-08 17:23 | 40.56742 | -74.76402 | 6076 ft | 292 kts | 43° |
| 2026-05-08 17:24 | 40.58126 | -74.74443 | 5996 ft | 292 kts | 43° |
| 2026-05-08 17:24 | 40.59510 | -74.72489 | 5917 ft | 291 kts | 43° |
| 2026-05-08 17:24 | 40.60938 | -74.70617 | 5810 ft | 287 kts | 32° |
| 2026-05-08 17:24 | 40.62640 | -74.69327 | 5683 ft | 281 kts | 21° |
| 2026-05-08 17:25 | 40.64382 | -74.68158 | 5548 ft | 281 kts | 21° |
| 2026-05-08 17:25 | 40.66125 | -74.66994 | 5425 ft | 280 kts | 21° |
| 2026-05-08 17:25 | 40.67856 | -74.65840 | 5303 ft | 279 kts | 21° |
| 2026-05-08 17:25 | 40.69587 | -74.64684 | 5161 ft | 278 kts | 21° |
| 2026-05-08 17:26 | 40.71317 | -74.63528 | 5038 ft | 278 kts | 21° |
| 2026-05-08 17:26 | 40.73041 | -74.62377 | 4910 ft | 277 kts | 21° |
| 2026-05-08 17:26 | 40.74761 | -74.61228 | 4797 ft | 277 kts | 21° |
| 2026-05-08 17:26 | 40.76480 | -74.60074 | 4677 ft | 277 kts | 21° |
| 2026-05-08 17:27 | 40.78199 | -74.58920 | 4554 ft | 277 kts | 21° |
| 2026-05-08 17:27 | 40.79906 | -74.57774 | 4423 ft | 276 kts | 21° |
| 2026-05-08 17:27 | 40.81617 | -74.56624 | 4292 ft | 276 kts | 21° |
| 2026-05-08 17:27 | 40.83323 | -74.55476 | 4162 ft | 276 kts | 21° |
| 2026-05-08 17:28 | 40.85034 | -74.54324 | 4034 ft | 276 kts | 21° |
| 2026-05-08 17:28 | 40.86741 | -74.53175 | 4025 ft | 275 kts | 21° |
| 2026-05-08 17:28 | 40.88449 | -74.52027 | 4026 ft | 276 kts | 21° |
| 2026-05-08 17:28 | 40.90131 | -74.50895 | 4026 ft | 275 kts | 21° |
| 2026-05-08 17:29 | 40.91841 | -74.49746 | 4027 ft | 275 kts | 21° |
| 2026-05-08 17:29 | 40.93537 | -74.48604 | 4034 ft | 275 kts | 21° |
| 2026-05-08 17:29 | 40.95238 | -74.47456 | 4023 ft | 274 kts | 21° |
| 2026-05-08 17:29 | 40.96932 | -74.46313 | 4020 ft | 273 kts | 21° |
| 2026-05-08 17:30 | 40.98626 | -74.45171 | 4020 ft | 273 kts | 21° |
| 2026-05-08 17:30 | 41.00304 | -74.44035 | 4013 ft | 265 kts | 21° |
| 2026-05-08 17:30 | 41.01890 | -74.42954 | 4014 ft | 247 kts | 21° |
| 2026-05-08 17:30 | 41.03367 | -74.41946 | 4015 ft | 231 kts | 21° |
| 2026-05-08 17:31 | 41.04751 | -74.41003 | 4016 ft | 217 kts | 20° |
| 2026-05-08 17:31 | 41.06068 | -74.40109 | 4015 ft | 209 kts | 20° |
| 2026-05-08 17:31 | 41.07356 | -74.39240 | 4013 ft | 207 kts | 20° |
| 2026-05-08 17:31 | 41.08638 | -74.38378 | 4015 ft | 206 kts | 20° |
| 2026-05-08 17:32 | 41.09918 | -74.37517 | 4013 ft | 206 kts | 20° |
| 2026-05-08 17:32 | 41.11194 | -74.36656 | 4010 ft | 206 kts | 19° |
| 2026-05-08 17:32 | 41.12473 | -74.35794 | 4026 ft | 206 kts | 20° |
| 2026-05-08 17:32 | 41.13732 | -74.34942 | 4012 ft | 206 kts | 22° |
| 2026-05-08 17:33 | 41.14897 | -74.33798 | 4009 ft | 212 kts | 42° |
| 2026-05-08 17:33 | 41.15756 | -74.32185 | 4009 ft | 216 kts | 62° |
| 2026-05-08 17:33 | 41.16199 | -74.30272 | 4011 ft | 219 kts | 82° |
| 2026-05-08 17:33 | 41.16171 | -74.28253 | 4007 ft | 221 kts | 102° |
| 2026-05-08 17:34 | 41.15662 | -74.26346 | 4011 ft | 219 kts | 122° |
| 2026-05-08 17:34 | 41.14905 | -74.24601 | 4017 ft | 219 kts | 123° |
| 2026-05-08 17:34 | 41.14154 | -74.22855 | 4013 ft | 217 kts | 123° |
| 2026-05-08 17:34 | 41.13411 | -74.21114 | 4008 ft | 217 kts | 122° |
| 2026-05-08 17:35 | 41.12669 | -74.19368 | 4009 ft | 218 kts | 122° |
| 2026-05-08 17:35 | 41.11920 | -74.17611 | 4008 ft | 220 kts | 122° |
| 2026-05-08 17:35 | 41.11171 | -74.15850 | 4013 ft | 219 kts | 122° |
| 2026-05-08 17:35 | 41.10423 | -74.14091 | 4011 ft | 218 kts | 123° |
| 2026-05-08 17:36 | 41.09589 | -74.12425 | 4007 ft | 216 kts | 133° |
| 2026-05-08 17:36 | 41.08658 | -74.10851 | 4006 ft | 217 kts | 133° |
| 2026-05-08 17:36 | 41.07729 | -74.09285 | 4015 ft | 215 kts | 133° |
| 2026-05-08 17:36 | 41.06805 | -74.07725 | 4014 ft | 215 kts | 133° |
| 2026-05-08 17:37 | 41.05885 | -74.06170 | 4007 ft | 214 kts | 133° |
| 2026-05-08 17:37 | 41.04967 | -74.04616 | 3966 ft | 216 kts | 133° |
| 2026-05-08 17:37 | 41.04012 | -74.03008 | 3522 ft | 227 kts | 132° |
| 2026-05-08 17:37 | 41.03014 | -74.01332 | 3068 ft | 235 kts | 132° |
| 2026-05-08 17:38 | 41.02015 | -73.99644 | 2609 ft | 230 kts | 131° |
| 2026-05-08 17:38 | 41.01056 | -73.98016 | 2361 ft | 215 kts | 131° |
| 2026-05-08 17:38 | 41.00145 | -73.96478 | 2311 ft | 209 kts | 135° |
| 2026-05-08 17:38 | 40.99072 | -73.95318 | 2246 ft | 196 kts | 159° |
| 2026-05-08 17:39 | 40.97864 | -73.94805 | 2198 ft | 181 kts | 181° |
| 2026-05-08 17:39 | 40.96616 | -73.94873 | 2089 ft | 177 kts | 200° |
| 2026-05-08 17:39 | 40.95538 | -73.95421 | 1978 ft | 159 kts | 217° |
| 2026-05-08 17:39 | 40.94615 | -73.96175 | 1922 ft | 155 kts | 219° |
| 2026-05-08 17:40 | 40.93702 | -73.96913 | 1861 ft | 153 kts | 217° |
| 2026-05-08 17:40 | 40.92800 | -73.97628 | 1819 ft | 145 kts | 218° |
| 2026-05-08 17:40 | 40.91985 | -73.98280 | 1692 ft | 131 kts | 220° |
| 2026-05-08 17:40 | 40.91228 | -73.98912 | 1639 ft | 127 kts | 221° |
| 2026-05-08 17:41 | 40.90494 | -73.99541 | 1505 ft | 124 kts | 222° |
| 2026-05-08 17:41 | 40.89784 | -74.00177 | 1276 ft | 123 kts | 223° |
| 2026-05-08 17:41 | 40.89101 | -74.00859 | 1079 ft | 122 kts | 224° |
| 2026-05-08 17:41 | 40.88442 | -74.01600 | 900 ft | 124 kts | 230° |
| 2026-05-08 17:42 | 40.87831 | -74.02398 | 734 ft | 124 kts | 232° |
| 2026-05-08 17:42 | 40.87241 | -74.03240 | 539 ft | 125 kts | 235° |
| 2026-05-08 17:42 | 40.86661 | -74.04098 | 346 ft | 125 kts | 234° |
| 2026-05-08 17:42 | 40.86074 | -74.04962 | 137 ft | 127 kts | 234° |
| 2026-05-08 17:43 | 40.85493 | -74.05822 | 21 ft | 118 kts | 234° |
| 2026-05-08 17:43 | 40.85093 | -74.06409 | 24 ft | 44 kts | 228° |
| 2026-05-08 17:43 | 40.84977 | -74.06583 | 24 ft | 10 kts | 229° |
| 2026-05-08 17:43 | 40.84971 | -74.06642 | 26 ft | 8 kts | 302° |
| 2026-05-08 17:44 | 40.85000 | -74.06692 | 26 ft | 12 kts | 308° |
| 2026-05-08 17:44 | 40.85063 | -74.06679 | 25 ft | 11 kts | 49° |
| 2026-05-08 17:44 | 40.85114 | -74.06598 | 25 ft | 11 kts | 49° |
| 2026-05-08 17:44 | 40.85175 | -74.06509 | 25 ft | 16 kts | 48° |
| 2026-05-08 17:45 | 40.85274 | -74.06365 | 21 ft | 17 kts | 47° |
| 2026-05-08 17:45 | 40.85321 | -74.06297 | 21 ft | 5 kts | 45° |
| 2026-05-08 17:45 | 40.85343 | -74.06267 | 23 ft | 4 kts | 49° |
| 2026-05-08 17:45 | 40.85364 | -74.06235 | 17 ft | 8 kts | 49° |
| 2026-05-08 17:46 | 40.85391 | -74.06194 | 17 ft | 9 kts | 49° |
| 2026-05-08 17:46 | 40.85435 | -74.06127 | 16 ft | 10 kts | 49° |
| 2026-05-08 17:46 | 40.85482 | -74.06068 | 16 ft | 8 kts | 30° |
| 2026-05-08 17:46 | 40.85520 | -74.06060 | 17 ft | 3 kts | 348° |
| 2026-05-08 17:47 | 40.85534 | -74.06076 | 17 ft | 5 kts | 308° |
| 2026-05-08 17:47 | 40.85549 | -74.06100 | 16 ft | 6 kts | 310° |
| 2026-05-08 17:47 | 40.85586 | -74.06163 | 16 ft | 6 kts | 307° |
| 2026-05-08 17:47 | 40.85606 | -74.06205 | 15 ft | 2 kts | 298° |
| 2026-05-08 17:48 | 40.85614 | -74.06215 | 16 ft | 2 kts | 332° |
| 2026-05-08 17:48 | 40.85635 | -74.06226 | 15 ft | 2 kts | 337° |